createdAt,value
2023-03-21T00:00:25.546Z,14.80
2023-03-21T00:01:27.133Z,9.93
2023-03-21T00:02:28.727Z,11.87
2023-03-21T00:03:31.623Z,9.30
2023-03-21T00:04:44.597Z,10.27
2023-03-21T00:05:53.775Z,12.13
2023-03-21T00:06:55.500Z,11.47
2023-03-21T00:07:57.092Z,10.97
2023-03-21T00:08:58.617Z,10.90
2023-03-21T00:10:08.882Z,10.90
2023-03-21T00:11:14.475Z,12.10
2023-03-21T00:12:16.799Z,10.40
2023-03-21T00:13:19.265Z,12.37
2023-03-21T00:14:20.842Z,11.80
2023-03-21T00:15:24.875Z,12.13
2023-03-21T00:16:33.667Z,10.53
2023-03-21T00:17:39.581Z,10.07
2023-03-21T00:18:46.709Z,8.63
2023-03-21T00:19:50.498Z,10.60
2023-03-21T00:21:29.355Z,12.87
2023-03-21T00:22:22.738Z,11.03
2023-03-21T00:23:28.695Z,9.87
2023-03-21T00:24:30.872Z,11.87
2023-03-21T00:25:33.170Z,8.97
2023-03-21T00:26:35.676Z,10.33
2023-03-21T00:28:01.481Z,9.47
2023-03-21T00:28:59.615Z,11.37
2023-03-21T00:30:01.190Z,9.63
2023-03-21T00:31:03.207Z,10.97
2023-03-21T00:32:04.917Z,10.67
2023-03-21T00:33:21.698Z,10.83
2023-03-21T00:34:36.420Z,10.77
2023-03-21T00:36:05.688Z,10.43
2023-03-21T00:37:09.033Z,9.50
2023-03-21T00:38:11.225Z,10.80
2023-03-21T00:39:14.221Z,10.83
2023-03-21T00:40:26.741Z,11.80
2023-03-21T00:41:42.526Z,11.47
2023-03-21T00:42:44.825Z,12.17
2023-03-21T00:43:46.448Z,13.53
2023-03-21T00:44:48.019Z,14.07
2023-03-21T00:45:51.386Z,12.43
2023-03-21T00:47:06.283Z,10.70
2023-03-21T00:48:08.906Z,11.50
2023-03-21T00:49:10.586Z,11.20
2023-03-21T00:50:12.432Z,10.80
2023-03-21T00:51:21.464Z,11.87
2023-03-21T00:52:38.174Z,11.63
2023-03-21T00:53:42.799Z,10.73
2023-03-21T00:54:44.406Z,11.70
2023-03-21T00:55:46.164Z,10.67
2023-03-21T00:56:47.767Z,11.87
2023-03-21T00:57:56.190Z,10.80
2023-03-21T00:59:03.045Z,11.57
2023-03-21T01:00:07.585Z,10.83
2023-03-21T01:01:09.560Z,13.17
2023-03-21T01:02:14.938Z,10.57
2023-03-21T01:03:25.042Z,15.17
2023-03-21T01:04:28.399Z,10.93
2023-03-21T01:05:49.966Z,10.03
2023-03-21T01:06:51.552Z,12.33
2023-03-21T01:07:53.348Z,12.53
2023-03-21T01:08:55.116Z,11.33
2023-03-21T01:09:56.712Z,11.20
2023-03-21T01:11:03.300Z,12.90
2023-03-21T01:12:04.952Z,12.37
2023-03-21T01:13:06.496Z,12.17
2023-03-21T01:14:21.398Z,12.40
2023-03-21T01:15:24.265Z,13.23
2023-03-21T01:16:25.930Z,10.80
2023-03-21T01:17:27.579Z,9.87
2023-03-21T01:18:30.028Z,10.60
2023-03-21T01:19:48.357Z,12.17
2023-03-21T01:20:53.382Z,13.70
2023-03-21T01:21:55.967Z,10.40
2023-03-21T01:22:57.540Z,11.83
2023-03-21T01:23:59.118Z,10.30
2023-03-21T01:25:12.163Z,10.07
2023-03-21T01:26:21.400Z,9.73
2023-03-21T01:27:22.952Z,12.07
2023-03-21T01:28:27.100Z,12.03
2023-03-21T01:29:28.627Z,11.03
2023-03-21T01:30:33.982Z,9.10
2023-03-21T01:31:38.519Z,8.83
2023-03-21T01:32:40.414Z,11.23
2023-03-21T01:33:42.676Z,8.80
2023-03-21T01:34:44.266Z,10.67
2023-03-21T01:35:53.445Z,10.27
2023-03-21T01:37:01.902Z,11.27
2023-03-21T01:38:03.489Z,10.93
2023-03-21T01:39:06.733Z,8.57
2023-03-21T01:40:12.819Z,10.30
2023-03-21T01:41:42.016Z,9.67
2023-03-21T01:42:44.784Z,9.93
2023-03-21T01:43:47.566Z,10.87
2023-03-21T01:45:01.818Z,11.67
2023-03-21T01:46:10.638Z,8.30
2023-03-21T01:47:12.966Z,10.70
2023-03-21T01:48:15.698Z,11.80
2023-03-21T01:49:26.121Z,11.93
2023-03-21T01:50:27.888Z,14.43
2023-03-21T01:51:33.354Z,11.47
2023-03-21T01:52:39.166Z,9.80
2023-03-21T01:53:41.991Z,13.10
2023-03-21T01:54:46.944Z,10.03
2023-03-21T01:55:49.797Z,11.83
2023-03-21T01:56:54.903Z,12.50
2023-03-21T01:58:06.632Z,10.73
2023-03-21T01:59:13.401Z,11.23
2023-03-21T02:00:16.869Z,10.83
2023-03-21T02:01:18.819Z,11.93
2023-03-21T02:02:31.515Z,12.63
2023-03-21T02:03:38.394Z,12.53
2023-03-21T02:04:40.981Z,11.07
2023-03-21T02:06:04.002Z,11.20
2023-03-21T02:07:13.840Z,11.90
2023-03-21T02:08:15.628Z,15.63
2023-03-21T02:09:21.872Z,12.43
2023-03-21T02:10:24.218Z,13.50
2023-03-21T02:11:27.045Z,14.77
2023-03-21T02:12:28.752Z,12.63
2023-03-21T02:13:30.804Z,12.43
2023-03-21T02:14:34.761Z,12.50
2023-03-21T02:15:39.040Z,13.30
2023-03-21T02:16:46.542Z,12.03
2023-03-21T02:17:56.400Z,12.03
2023-03-21T02:19:01.108Z,12.27
2023-03-21T02:20:22.247Z,12.23
2023-03-21T02:21:54.484Z,12.57
2023-03-21T02:23:16.587Z,11.90
2023-03-21T02:24:28.705Z,14.53
2023-03-21T02:25:43.370Z,18.00
2023-03-21T02:27:14.204Z,13.17
2023-03-21T02:28:47.364Z,16.17
2023-03-21T02:30:20.058Z,14.27
2023-03-21T02:31:39.837Z,14.27
2023-03-21T02:33:08.514Z,12.63
2023-03-21T02:34:39.666Z,11.87
2023-03-21T02:35:58.650Z,13.10
2023-03-21T02:37:06.869Z,10.93
2023-03-21T02:38:36.168Z,12.87
2023-03-21T02:39:53.545Z,13.17
2023-03-21T02:41:20.148Z,11.50
2023-03-21T02:43:01.158Z,11.37
2023-03-21T02:44:18.671Z,14.10
2023-03-21T02:45:30.555Z,10.73
2023-03-21T02:46:51.081Z,13.20
2023-03-21T02:48:04.539Z,10.77
2023-03-21T02:49:12.876Z,12.60
2023-03-21T02:50:25.024Z,13.13
2023-03-21T02:51:30.639Z,10.57
2023-03-21T02:52:39.608Z,11.57
2023-03-21T02:53:53.251Z,12.03
2023-03-21T02:55:05.162Z,11.80
2023-03-21T02:56:10.688Z,12.27
2023-03-21T02:57:12.932Z,11.23
2023-03-21T02:58:19.000Z,9.50
2023-03-21T02:59:23.435Z,12.10
2023-03-21T03:00:32.613Z,8.73
2023-03-21T03:01:34.255Z,7.90
2023-03-21T03:02:35.955Z,9.47
2023-03-21T03:03:39.471Z,9.47
2023-03-21T03:04:41.245Z,8.60
2023-03-21T03:05:49.570Z,8.00
2023-03-21T03:07:11.932Z,8.50
2023-03-21T03:08:38.540Z,7.70
2023-03-21T03:10:12.447Z,6.67
2023-03-21T03:11:23.242Z,7.07
2023-03-21T03:12:43.560Z,8.73
2023-03-21T03:13:48.057Z,10.73
2023-03-21T03:15:03.217Z,9.83
2023-03-21T03:16:27.145Z,9.77
2023-03-21T03:17:38.891Z,8.97
2023-03-21T03:18:53.950Z,7.67
2023-03-21T03:20:24.927Z,9.83
2023-03-21T03:21:44.026Z,12.83
2023-03-21T03:22:48.336Z,9.80
2023-03-21T03:24:08.966Z,11.83
2023-03-21T03:25:29.767Z,11.63
2023-03-21T03:26:47.795Z,12.07
2023-03-21T03:27:51.323Z,10.97
2023-03-21T03:29:01.921Z,10.23
2023-03-21T03:30:07.861Z,12.40
2023-03-21T03:31:14.957Z,11.83
2023-03-21T03:32:25.682Z,10.03
2023-03-21T03:33:29.185Z,14.27
2023-03-21T03:34:39.596Z,10.33
2023-03-21T03:35:41.264Z,10.07
2023-03-21T03:36:51.618Z,11.63
2023-03-21T03:38:01.047Z,11.03
2023-03-21T03:39:05.579Z,9.87
2023-03-21T03:40:09.341Z,10.20
2023-03-21T03:41:19.588Z,9.47
2023-03-21T03:42:30.381Z,9.53
2023-03-21T03:43:46.910Z,9.87
2023-03-21T03:44:48.721Z,9.47
2023-03-21T03:46:12.183Z,11.67
2023-03-21T03:48:02.042Z,12.27
2023-03-21T03:49:32.734Z,10.57
2023-03-21T03:50:46.089Z,10.53
2023-03-21T03:52:12.194Z,12.30
2023-03-21T03:53:19.318Z,12.53
2023-03-21T03:54:36.518Z,12.33
2023-03-21T03:55:38.859Z,11.87
2023-03-21T03:56:40.966Z,10.80
2023-03-21T03:57:42.605Z,10.93
2023-03-21T03:58:45.998Z,8.23
2023-03-21T03:59:47.830Z,10.30
2023-03-21T04:00:49.498Z,7.93
2023-03-21T04:01:51.610Z,10.20
2023-03-21T04:02:53.341Z,10.63
2023-03-21T04:04:10.382Z,7.50
2023-03-21T04:05:14.198Z,9.97
2023-03-21T04:06:16.738Z,9.63
2023-03-21T04:07:18.900Z,9.13
2023-03-21T04:08:23.296Z,9.40
2023-03-21T04:09:40.843Z,9.10
2023-03-21T04:10:45.018Z,7.47
2023-03-21T04:11:46.793Z,6.83
2023-03-21T04:12:48.441Z,6.93
2023-03-21T04:13:50.466Z,7.40
2023-03-21T04:14:53.300Z,6.40
2023-03-21T04:15:57.108Z,10.20
2023-03-21T04:16:58.644Z,8.47
2023-03-21T04:18:00.502Z,9.17
2023-03-21T04:19:02.367Z,9.10
2023-03-21T04:20:12.109Z,10.53
2023-03-21T04:21:16.818Z,12.77
2023-03-21T04:22:18.400Z,8.93
2023-03-21T04:23:20.158Z,11.53
2023-03-21T04:24:22.214Z,12.57
2023-03-21T04:25:32.815Z,12.50
2023-03-21T04:26:36.023Z,12.40
2023-03-21T04:27:37.810Z,12.33
2023-03-21T04:28:39.844Z,15.43
2023-03-21T04:29:41.741Z,17.90
2023-03-21T04:30:54.934Z,15.63
2023-03-21T04:32:03.382Z,16.07
2023-03-21T04:33:05.417Z,18.10
2023-03-21T04:34:09.830Z,13.73
2023-03-21T04:35:11.639Z,11.87
2023-03-21T04:36:24.997Z,13.07
2023-03-21T04:37:28.011Z,14.27
2023-03-21T04:38:30.853Z,14.17
2023-03-21T04:39:32.990Z,14.40
2023-03-21T04:40:34.620Z,14.20
2023-03-21T04:41:37.372Z,15.53
2023-03-21T04:42:39.367Z,15.90
2023-03-21T04:43:40.966Z,19.97
2023-03-21T04:44:42.496Z,15.57
2023-03-21T04:45:44.602Z,13.83
2023-03-21T04:46:46.168Z,15.43
2023-03-21T04:47:47.946Z,19.97
2023-03-21T04:48:49.772Z,21.50
2023-03-21T04:49:51.765Z,14.80
2023-03-21T04:50:53.304Z,17.17
2023-03-21T04:51:54.826Z,16.97
2023-03-21T04:52:56.378Z,19.07
2023-03-21T04:53:57.957Z,22.07
2023-03-21T04:54:59.546Z,18.47
2023-03-21T04:56:01.077Z,17.27
2023-03-21T04:57:02.736Z,19.70
2023-03-21T04:58:05.627Z,18.63
2023-03-21T04:59:11.395Z,19.93
2023-03-21T05:00:16.528Z,15.10
2023-03-21T05:01:20.731Z,16.70
2023-03-21T05:02:22.743Z,23.03
2023-03-21T05:03:25.081Z,17.23
2023-03-21T05:04:27.824Z,20.73
2023-03-21T05:05:29.429Z,20.30
2023-03-21T05:06:32.144Z,15.50
2023-03-21T05:07:33.774Z,14.50
2023-03-21T05:08:36.056Z,15.37
2023-03-21T05:09:37.764Z,20.30
2023-03-21T05:10:39.513Z,16.93
2023-03-21T05:11:42.092Z,26.43
2023-03-21T05:12:43.709Z,25.87
2023-03-21T05:13:45.229Z,21.33
2023-03-21T05:14:46.757Z,23.37
2023-03-21T05:15:48.280Z,19.37
2023-03-21T05:16:53.511Z,19.30
2023-03-21T05:17:55.796Z,19.07
2023-03-21T05:18:59.327Z,17.27
2023-03-21T05:20:00.926Z,18.60
2023-03-21T05:21:04.269Z,16.03
2023-03-21T05:22:08.348Z,15.43
2023-03-21T05:23:11.771Z,14.67
2023-03-21T05:24:20.345Z,13.40
2023-03-21T05:25:35.170Z,13.50
2023-03-21T05:26:36.851Z,15.40
2023-03-21T05:27:38.841Z,18.13
2023-03-21T05:28:40.329Z,14.50
2023-03-21T05:29:41.858Z,15.07
2023-03-21T05:30:43.712Z,18.37
2023-03-21T05:31:46.237Z,16.00
2023-03-21T05:32:47.846Z,17.00
2023-03-21T05:33:49.482Z,15.60
2023-03-21T05:34:51.037Z,17.83
2023-03-21T05:35:52.641Z,15.17
2023-03-21T05:36:54.932Z,16.13
2023-03-21T05:37:57.543Z,12.97
2023-03-21T05:38:59.044Z,15.00
2023-03-21T05:40:00.681Z,14.30
2023-03-21T05:41:02.297Z,13.37
2023-03-21T05:42:03.959Z,11.27
2023-03-21T05:43:05.705Z,11.87
2023-03-21T05:44:07.397Z,12.87
2023-03-21T05:45:09.294Z,12.50
2023-03-21T05:46:11.881Z,14.53
2023-03-21T05:47:15.048Z,12.97
2023-03-21T05:48:16.668Z,13.07
2023-03-21T05:49:18.193Z,15.90
2023-03-21T05:50:19.980Z,12.53
2023-03-21T05:51:22.105Z,15.03
2023-03-21T05:52:23.762Z,20.80
2023-03-21T05:53:25.352Z,17.70
2023-03-21T05:54:26.907Z,14.77
2023-03-21T05:55:28.451Z,14.37
2023-03-21T05:56:30.270Z,16.20
2023-03-21T05:57:35.069Z,12.77
2023-03-21T05:58:36.706Z,17.90
2023-03-21T05:59:38.303Z,12.70
2023-03-21T06:00:39.957Z,14.23
2023-03-21T06:01:41.493Z,16.67
2023-03-21T06:02:43.556Z,14.97
2023-03-21T06:03:45.590Z,21.40
2023-03-21T06:04:47.186Z,18.00
2023-03-21T06:05:48.705Z,18.63
2023-03-21T06:06:51.956Z,18.87
2023-03-21T06:07:53.521Z,19.63
2023-03-21T06:08:55.116Z,18.80
2023-03-21T06:09:56.918Z,18.87
2023-03-21T06:11:01.022Z,19.53
2023-03-21T06:12:02.865Z,22.67
2023-03-21T06:13:04.818Z,14.73
2023-03-21T06:14:06.450Z,18.47
2023-03-21T06:15:08.969Z,19.20
2023-03-21T06:16:10.672Z,18.47
2023-03-21T06:17:12.376Z,18.07
2023-03-21T06:18:14.149Z,21.33
2023-03-21T06:19:15.796Z,16.07
2023-03-21T06:20:17.622Z,22.33
2023-03-21T06:21:19.150Z,24.60
2023-03-21T06:22:20.668Z,20.63
2023-03-21T06:23:22.335Z,17.90
2023-03-21T06:24:23.880Z,20.17
2023-03-21T06:25:25.631Z,19.17
2023-03-21T06:26:27.397Z,23.67
2023-03-21T06:27:28.917Z,15.17
2023-03-21T06:28:30.733Z,16.90
2023-03-21T06:29:32.360Z,19.70
2023-03-21T06:30:33.898Z,21.53
2023-03-21T06:31:35.696Z,19.60
2023-03-21T06:32:37.245Z,19.67
2023-03-21T06:33:39.140Z,23.27
2023-03-21T06:34:40.876Z,18.60
2023-03-21T06:35:42.772Z,23.67
2023-03-21T06:36:44.909Z,19.37
2023-03-21T06:37:49.300Z,14.67
2023-03-21T06:38:51.063Z,16.83
2023-03-21T06:39:54.602Z,19.63
2023-03-21T06:40:58.146Z,18.60
2023-03-21T06:42:00.620Z,19.13
2023-03-21T06:43:02.177Z,18.73
2023-03-21T06:44:04.257Z,20.40
2023-03-21T06:45:06.685Z,18.10
2023-03-21T06:46:08.374Z,14.90
2023-03-21T06:47:10.206Z,14.70
2023-03-21T06:48:12.474Z,19.53
2023-03-21T06:49:14.089Z,14.60
2023-03-21T06:50:15.745Z,15.53
2023-03-21T06:51:17.585Z,18.80
2023-03-21T06:52:19.156Z,16.00
2023-03-21T06:53:24.407Z,14.27
2023-03-21T06:54:25.968Z,12.37
2023-03-21T06:55:28.936Z,13.93
2023-03-21T06:56:30.718Z,12.00
2023-03-21T06:57:32.309Z,17.03
2023-03-21T06:58:33.876Z,18.20
2023-03-21T06:59:36.210Z,17.83
2023-03-21T07:00:37.781Z,17.10
2023-03-21T07:01:39.733Z,19.53
2023-03-21T07:02:41.844Z,19.23
2023-03-21T07:03:43.994Z,18.20
2023-03-21T07:04:45.735Z,24.07
2023-03-21T07:05:47.701Z,18.50
2023-03-21T07:06:49.625Z,24.10
2023-03-21T07:07:51.188Z,21.83
2023-03-21T07:08:53.836Z,24.40
2023-03-21T07:09:56.133Z,27.00
2023-03-21T07:10:58.001Z,17.63
2023-03-21T07:11:59.563Z,17.13
2023-03-21T07:13:01.382Z,20.97
2023-03-21T07:14:03.471Z,15.97
2023-03-21T07:15:06.978Z,16.43
2023-03-21T07:16:09.131Z,19.07
2023-03-21T07:17:11.174Z,16.43
2023-03-21T07:18:12.767Z,18.00
2023-03-21T07:19:15.755Z,18.37
2023-03-21T07:20:17.589Z,17.00
2023-03-21T07:21:19.148Z,14.13
2023-03-21T07:22:20.864Z,18.93
2023-03-21T07:23:25.729Z,15.97
2023-03-21T07:24:27.533Z,18.33
2023-03-21T07:25:29.500Z,22.57
2023-03-21T07:26:31.073Z,20.77
2023-03-21T07:27:32.797Z,17.83
2023-03-21T07:28:34.517Z,21.03
2023-03-21T07:29:36.041Z,17.87
2023-03-21T07:30:37.807Z,16.67
2023-03-21T07:31:40.001Z,14.20
2023-03-21T07:32:41.668Z,12.73
2023-03-21T07:33:43.250Z,12.13
2023-03-21T07:34:44.772Z,15.73
2023-03-21T07:35:46.576Z,16.73
2023-03-21T07:36:48.111Z,12.20
2023-03-21T07:37:49.743Z,17.77
2023-03-21T07:38:51.401Z,7.83
2023-03-21T07:39:53.322Z,14.13
2023-03-21T07:40:54.855Z,12.60
2023-03-21T07:41:56.597Z,11.90
2023-03-21T07:42:58.286Z,11.83
2023-03-21T07:43:59.870Z,9.07
2023-03-21T07:45:01.449Z,11.20
2023-03-21T07:46:03.037Z,9.97
2023-03-21T07:47:05.710Z,8.57
2023-03-21T07:48:07.341Z,9.23
2023-03-21T07:49:09.042Z,12.67
2023-03-21T07:50:10.767Z,14.83
2023-03-21T07:51:12.412Z,10.00
2023-03-21T07:52:14.173Z,10.83
2023-03-21T07:53:15.701Z,10.63
2023-03-21T07:54:19.369Z,11.97
2023-03-21T07:55:21.015Z,10.80
2023-03-21T07:56:22.605Z,14.60
2023-03-21T07:57:24.154Z,19.77
2023-03-21T07:58:26.878Z,14.87
2023-03-21T07:59:28.514Z,13.73
2023-03-21T08:00:30.751Z,14.63
2023-03-21T08:01:32.610Z,14.07
2023-03-21T08:02:34.262Z,14.50
2023-03-21T08:03:35.992Z,14.07
2023-03-21T08:04:37.574Z,17.07
2023-03-21T08:05:39.735Z,20.63
2023-03-21T08:06:41.539Z,17.50
2023-03-21T08:07:43.082Z,13.60
2023-03-21T08:08:44.643Z,17.90
2023-03-21T08:09:46.310Z,11.47
2023-03-21T08:10:47.986Z,13.63
2023-03-21T08:11:49.538Z,14.47
2023-03-21T08:12:51.311Z,13.03
2023-03-21T08:13:53.960Z,12.67
2023-03-21T08:14:55.618Z,10.57
2023-03-21T08:15:57.187Z,9.73
2023-03-21T08:16:58.807Z,11.83
2023-03-21T08:18:00.685Z,14.63
2023-03-21T08:19:02.248Z,10.67
2023-03-21T08:20:09.062Z,12.53
2023-03-21T08:21:10.665Z,10.50
2023-03-21T08:22:12.404Z,9.63
2023-03-21T08:23:13.925Z,17.00
2023-03-21T08:24:16.260Z,14.50
2023-03-21T08:25:20.256Z,10.00
2023-03-21T08:26:25.099Z,12.97
2023-03-21T08:27:27.113Z,14.20
2023-03-21T08:28:28.701Z,13.13
2023-03-21T08:29:30.330Z,13.97
2023-03-21T08:30:32.017Z,13.27
2023-03-21T08:31:33.685Z,11.73
2023-03-21T08:32:35.260Z,11.00
2023-03-21T08:33:37.578Z,10.37
2023-03-21T08:34:39.133Z,10.30
2023-03-21T08:35:41.399Z,9.60
2023-03-21T08:36:43.786Z,10.97
2023-03-21T08:37:45.359Z,13.27
2023-03-21T08:38:48.491Z,11.13
2023-03-21T08:39:50.229Z,12.33
2023-03-21T08:40:51.881Z,9.57
2023-03-21T08:41:53.409Z,11.53
2023-03-21T08:42:55.303Z,9.33
2023-03-21T08:43:56.872Z,10.37
2023-03-21T08:44:58.432Z,16.80
2023-03-21T08:46:00.005Z,12.73
2023-03-21T08:47:01.556Z,10.27
2023-03-21T08:48:03.198Z,16.10
2023-03-21T08:49:04.797Z,10.97
2023-03-21T08:50:08.597Z,11.87
2023-03-21T08:51:10.334Z,13.63
2023-03-21T08:52:12.485Z,10.50
2023-03-21T08:53:14.278Z,16.40
2023-03-21T08:54:22.450Z,12.40
2023-03-21T08:55:24.058Z,14.27
2023-03-21T08:56:25.680Z,12.00
2023-03-21T08:57:27.225Z,14.77
2023-03-21T08:58:28.840Z,18.87
2023-03-21T08:59:30.584Z,13.37
2023-03-21T09:00:32.350Z,18.10
2023-03-21T09:01:33.992Z,16.90
2023-03-21T09:02:36.080Z,19.43
2023-03-21T09:03:38.840Z,14.40
2023-03-21T09:04:40.908Z,17.70
2023-03-21T09:05:45.528Z,11.93
2023-03-21T09:06:48.850Z,17.50
2023-03-21T09:07:50.440Z,18.67
2023-03-21T09:08:53.434Z,23.20
2023-03-21T09:10:15.113Z,18.30
2023-03-21T09:11:16.888Z,17.23
2023-03-21T09:12:18.577Z,18.63
2023-03-21T09:13:20.979Z,15.30
2023-03-21T09:14:28.432Z,14.83
2023-03-21T09:15:30.504Z,13.80
2023-03-21T09:16:33.188Z,10.13
2023-03-21T09:17:34.943Z,13.93
2023-03-21T09:18:47.098Z,17.70
2023-03-21T09:19:49.776Z,15.47
2023-03-21T09:20:51.921Z,15.60
2023-03-21T09:21:54.193Z,20.13
2023-03-21T09:22:56.230Z,16.13
2023-03-21T09:23:59.943Z,12.57
2023-03-21T09:25:03.202Z,18.30
2023-03-21T09:26:04.978Z,19.80
2023-03-21T09:27:06.542Z,18.90
2023-03-21T09:28:08.603Z,14.30
2023-03-21T09:29:10.558Z,15.13
2023-03-21T09:30:13.890Z,19.27
2023-03-21T09:31:19.214Z,12.33
2023-03-21T09:32:20.829Z,14.80
2023-03-21T09:33:25.754Z,13.90
2023-03-21T09:34:28.377Z,17.17
2023-03-21T09:35:30.148Z,17.63
2023-03-21T09:36:32.280Z,13.70
2023-03-21T09:37:38.336Z,19.00
2023-03-21T09:38:43.103Z,17.77
2023-03-21T09:39:45.225Z,15.90
2023-03-21T09:41:20.499Z,17.63
2023-03-21T09:42:31.617Z,17.03
2023-03-21T09:44:05.734Z,16.23
2023-03-21T09:45:25.992Z,17.17
2023-03-21T09:46:46.015Z,15.53
2023-03-21T09:47:57.130Z,16.33
2023-03-21T09:49:09.914Z,19.23
2023-03-21T09:50:20.101Z,16.33
2023-03-21T09:51:24.217Z,16.17
2023-03-21T09:52:43.870Z,16.03
2023-03-21T09:53:49.368Z,15.60
2023-03-21T09:54:51.087Z,20.60
2023-03-21T09:55:54.556Z,15.27
2023-03-21T09:57:01.085Z,13.70
2023-03-21T09:58:08.153Z,17.17
2023-03-21T09:59:19.636Z,13.07
2023-03-21T10:00:29.582Z,17.07
2023-03-21T10:01:41.939Z,17.80
2023-03-21T10:02:55.027Z,17.67
2023-03-21T10:04:01.005Z,13.23
2023-03-21T10:05:12.038Z,11.57
2023-03-21T10:06:16.512Z,13.63
2023-03-21T10:07:19.987Z,18.50
2023-03-21T10:08:27.747Z,12.10
2023-03-21T10:09:32.637Z,12.80
2023-03-21T10:10:46.007Z,12.40
2023-03-21T10:11:54.363Z,15.13
2023-03-21T10:12:57.079Z,12.43
2023-03-21T10:14:01.312Z,8.67
2023-03-21T10:15:05.399Z,14.27
2023-03-21T10:16:21.149Z,10.63
2023-03-21T10:17:46.692Z,11.70
2023-03-21T10:18:49.807Z,13.80
2023-03-21T10:20:01.354Z,9.30
2023-03-21T10:21:05.236Z,13.30
2023-03-21T10:22:09.165Z,12.97
2023-03-21T10:23:16.837Z,11.00
2023-03-21T10:24:24.113Z,9.37
2023-03-21T10:25:42.262Z,16.53
2023-03-21T10:26:45.572Z,11.10
2023-03-21T10:27:48.581Z,8.77
2023-03-21T10:28:53.364Z,13.43
2023-03-21T10:29:57.653Z,10.63
2023-03-21T10:31:04.459Z,9.77
2023-03-21T10:32:10.036Z,11.83
2023-03-21T10:33:15.978Z,9.87
2023-03-21T10:34:29.150Z,13.23
2023-03-21T10:35:33.805Z,9.00
2023-03-21T10:36:36.144Z,12.53
2023-03-21T10:37:37.916Z,11.53
2023-03-21T10:38:43.577Z,9.40
2023-03-21T10:39:49.034Z,11.70
2023-03-21T10:40:50.904Z,12.32
2023-03-21T10:41:52.437Z,11.85
2023-03-21T10:42:57.903Z,8.73
2023-03-21T10:44:14.910Z,10.23
2023-03-21T10:45:19.539Z,12.50
2023-03-21T10:46:21.765Z,10.25
2023-03-21T10:47:30.499Z,8.85
2023-03-21T10:48:36.888Z,11.20
2023-03-21T10:50:06.194Z,10.45
2023-03-21T10:51:01.461Z,9.70
2023-03-21T10:52:07.549Z,10.83
2023-03-21T10:53:21.352Z,7.80
2023-03-21T10:54:28.814Z,9.33
2023-03-21T10:55:33.449Z,7.93
2023-03-21T10:56:40.832Z,9.60
2023-03-21T10:57:42.524Z,8.90
2023-03-21T10:58:49.774Z,12.47
2023-03-21T11:00:02.452Z,9.03
2023-03-21T11:01:07.920Z,11.02
2023-03-21T11:02:24.452Z,8.63
2023-03-21T11:03:36.453Z,10.97
2023-03-21T11:04:38.865Z,9.93
2023-03-21T11:05:42.457Z,17.70
2023-03-21T11:07:00.005Z,13.50
2023-03-21T11:08:17.422Z,12.02
2023-03-21T11:09:22.074Z,13.70
2023-03-21T11:10:33.402Z,10.60
2023-03-21T11:11:49.608Z,12.57
2023-03-21T11:12:56.622Z,12.88
2023-03-21T11:14:07.136Z,11.77
2023-03-21T11:15:26.304Z,8.98
2023-03-21T11:16:38.476Z,8.93
2023-03-21T11:17:41.912Z,8.70
2023-03-21T11:18:45.649Z,8.30
2023-03-21T11:19:53.215Z,6.20
2023-03-21T11:21:03.616Z,12.30
2023-03-21T11:22:07.366Z,10.93
2023-03-21T11:23:13.013Z,7.90
2023-03-21T11:24:17.334Z,9.18
2023-03-21T11:25:39.364Z,8.27
2023-03-21T11:26:44.516Z,8.73
2023-03-21T11:27:54.974Z,5.80
2023-03-21T11:28:57.573Z,10.70
2023-03-21T11:30:02.141Z,10.18
2023-03-21T11:31:05.734Z,11.02
2023-03-21T11:32:30.967Z,9.60
2023-03-21T11:33:49.277Z,14.43
2023-03-21T11:35:15.497Z,10.90
2023-03-21T11:36:17.013Z,14.38
2023-03-21T11:37:28.516Z,6.90
2023-03-21T11:38:36.118Z,13.18
2023-03-21T11:39:41.054Z,8.63
2023-03-21T11:40:54.054Z,7.07
2023-03-21T11:41:55.947Z,8.02
2023-03-21T11:42:59.848Z,10.23
2023-03-21T11:44:03.102Z,8.80
2023-03-21T11:45:12.236Z,11.00
2023-03-21T11:46:14.590Z,7.93
2023-03-21T11:47:16.277Z,12.13
2023-03-21T11:48:17.976Z,8.80
2023-03-21T11:49:21.156Z,9.57
2023-03-21T11:50:44.845Z,12.65
2023-03-21T11:51:58.620Z,10.02
2023-03-21T11:53:15.068Z,10.65
2023-03-21T11:54:34.795Z,13.07
2023-03-21T11:55:58.965Z,14.23
2023-03-21T11:57:22.760Z,9.87
2023-03-21T11:58:46.494Z,9.20
2023-03-21T12:00:14.412Z,9.87
2023-03-21T12:01:19.157Z,8.85
2023-03-21T12:02:55.197Z,8.37
2023-03-21T12:04:18.593Z,7.63
2023-03-21T12:05:27.376Z,8.25
2023-03-21T12:06:32.321Z,10.80
2023-03-21T12:07:48.508Z,12.02
2023-03-21T12:09:01.693Z,11.50
2023-03-21T12:10:21.480Z,9.15
2023-03-21T12:11:37.412Z,7.90
2023-03-21T12:12:51.650Z,7.63
2023-03-21T12:14:19.494Z,7.67
2023-03-21T12:15:35.915Z,7.50
2023-03-21T12:16:44.268Z,11.70
2023-03-21T12:18:00.996Z,4.83
2023-03-21T12:19:20.210Z,5.50
2023-03-21T12:20:39.809Z,5.63
2023-03-21T12:22:16.278Z,7.30
2023-03-21T12:24:22.428Z,6.77
2023-03-21T12:25:32.855Z,6.40
2023-03-21T12:26:46.560Z,5.60
2023-03-21T12:28:32.134Z,7.10
2023-03-21T12:29:56.927Z,4.60
2023-03-21T12:31:27.301Z,6.17
2023-03-21T12:32:40.347Z,3.73
2023-03-21T12:33:52.205Z,6.83
2023-03-21T12:35:09.404Z,8.83
2023-03-21T12:36:31.044Z,4.63
2023-03-21T12:37:53.815Z,8.60
2023-03-21T12:39:11.495Z,4.80
2023-03-21T12:40:21.971Z,5.10
2023-03-21T12:41:31.194Z,4.37
2023-03-21T12:42:51.046Z,7.13
2023-03-21T12:43:56.421Z,8.17
2023-03-21T12:45:15.369Z,4.47
2023-03-21T12:46:42.286Z,4.67
2023-03-21T12:47:53.405Z,3.50
2023-03-21T12:49:01.298Z,4.77
2023-03-21T12:50:15.476Z,5.57
2023-03-21T12:51:21.225Z,5.40
2023-03-21T12:52:25.679Z,4.53
2023-03-21T12:53:36.101Z,5.50
2023-03-21T12:54:43.631Z,4.43
2023-03-21T12:55:45.936Z,6.53
2023-03-21T12:56:55.334Z,5.67
2023-03-21T12:58:04.417Z,6.87
2023-03-21T12:59:43.586Z,4.90
2023-03-21T13:00:48.981Z,4.63
2023-03-21T13:01:53.698Z,4.80
2023-03-21T13:03:20.960Z,6.17
2023-03-21T13:04:33.394Z,5.30
2023-03-21T13:05:41.184Z,5.17
2023-03-21T13:06:46.611Z,4.93
2023-03-21T13:07:54.290Z,8.77
2023-03-21T13:09:23.366Z,7.23
2023-03-21T13:10:30.681Z,7.90
2023-03-21T13:11:34.007Z,6.43
2023-03-21T13:12:57.340Z,4.67
2023-03-21T13:14:04.611Z,4.17
2023-03-21T13:15:27.894Z,6.23
2023-03-21T13:16:48.309Z,4.83
2023-03-21T13:18:18.310Z,9.30
2023-03-21T13:19:28.730Z,4.43
2023-03-21T13:20:56.260Z,4.73
2023-03-21T13:22:10.456Z,7.63
2023-03-21T13:23:13.723Z,8.60
2023-03-21T13:24:22.189Z,8.63
2023-03-21T13:25:25.931Z,7.97
2023-03-21T13:27:00.735Z,6.30
2023-03-21T13:28:05.488Z,8.20
2023-03-21T13:29:15.298Z,5.28
2023-03-21T13:30:27.120Z,5.95
2023-03-21T13:31:32.038Z,7.10
2023-03-21T13:32:45.485Z,4.87
2023-03-21T13:33:51.455Z,3.55
2023-03-21T13:34:58.858Z,6.00
2023-03-21T13:36:07.161Z,10.07
2023-03-21T13:37:16.740Z,3.90
2023-03-21T13:38:23.245Z,6.87
2023-03-21T13:39:28.742Z,4.27
2023-03-21T13:40:50.417Z,7.93
2023-03-21T13:41:53.270Z,4.47
2023-03-21T13:43:00.533Z,6.63
2023-03-21T13:44:02.012Z,5.77
2023-03-21T13:45:09.949Z,12.13
2023-03-21T13:46:46.962Z,5.57
2023-03-21T13:47:57.880Z,6.30
2023-03-21T13:49:01.421Z,5.27
2023-03-21T13:50:17.648Z,5.50
2023-03-21T13:51:43.087Z,4.73
2023-03-21T13:53:03.406Z,5.67
2023-03-21T13:54:18.980Z,5.67
2023-03-21T13:55:20.720Z,7.10
2023-03-21T13:56:23.388Z,5.17
2023-03-21T13:57:29.404Z,5.00
2023-03-21T13:58:40.633Z,7.07
2023-03-21T13:59:44.198Z,6.37
2023-03-21T14:01:26.188Z,4.50
2023-03-21T14:02:29.735Z,3.50
2023-03-21T14:03:34.343Z,7.40
2023-03-21T14:04:41.914Z,7.63
2023-03-21T14:05:50.011Z,4.10
2023-03-21T14:06:54.376Z,3.77
2023-03-21T14:08:12.631Z,4.43
2023-03-21T14:09:25.828Z,5.13
2023-03-21T14:10:39.864Z,2.77
2023-03-21T14:11:46.794Z,3.90
2023-03-21T14:12:49.203Z,8.27
2023-03-21T14:13:54.150Z,3.03
2023-03-21T14:15:14.112Z,4.60
2023-03-21T14:16:18.767Z,4.27
2023-03-21T14:17:29.482Z,2.90
2023-03-21T14:19:55.252Z,3.97
2023-03-21T14:20:58.613Z,4.07
2023-03-21T14:22:00.287Z,3.93
2023-03-21T14:23:06.757Z,3.83
2023-03-21T14:24:13.761Z,3.30
2023-03-21T14:25:18.570Z,6.77
2023-03-21T14:26:20.508Z,4.00
2023-03-21T14:27:22.657Z,5.03
2023-03-21T14:28:28.566Z,3.83
2023-03-21T14:29:33.558Z,9.67
2023-03-21T14:30:39.442Z,2.37
2023-03-21T14:31:41.865Z,6.50
2023-03-21T14:32:43.431Z,6.80
2023-03-21T14:33:58.123Z,4.70
2023-03-21T14:35:01.420Z,4.27